sensor_id;sensor_type;location;lat;lon;timestamp;P1;durP1;ratioP1;P2;durP2;ratioP2
4519;SDS011;2272;49.226;8.108;2022-08-19T00:00:48;27.07;;;19.73;;
4519;SDS011;2272;49.226;8.108;2022-08-19T00:03:15;18.70;;;16.30;;
4519;SDS011;2272;49.226;8.108;2022-08-19T00:05:42;21.53;;;18.40;;
4519;SDS011;2272;49.226;8.108;2022-08-19T00:08:10;19.47;;;16.83;;
4519;SDS011;2272;49.226;8.108;2022-08-19T00:10:37;20.40;;;18.20;;
4519;SDS011;2272;49.226;8.108;2022-08-19T00:13:04;19.63;;;17.53;;
4519;SDS011;2272;49.226;8.108;2022-08-19T00:15:31;22.70;;;18.50;;
4519;SDS011;2272;49.226;8.108;2022-08-19T00:17:58;25.47;;;19.80;;
4519;SDS011;2272;49.226;8.108;2022-08-19T00:20:25;21.27;;;17.77;;
4519;SDS011;2272;49.226;8.108;2022-08-19T00:22:52;21.90;;;17.90;;
4519;SDS011;2272;49.226;8.108;2022-08-19T00:25:20;19.77;;;17.67;;
4519;SDS011;2272;49.226;8.108;2022-08-19T00:27:47;20.00;;;17.57;;
4519;SDS011;2272;49.226;8.108;2022-08-19T00:30:14;22.40;;;19.13;;
4519;SDS011;2272;49.226;8.108;2022-08-19T00:32:41;21.10;;;16.63;;
4519;SDS011;2272;49.226;8.108;2022-08-19T00:35:08;22.20;;;18.90;;
4519;SDS011;2272;49.226;8.108;2022-08-19T00:37:36;24.87;;;18.30;;
4519;SDS011;2272;49.226;8.108;2022-08-19T00:40:04;20.47;;;18.27;;
4519;SDS011;2272;49.226;8.108;2022-08-19T00:42:33;21.70;;;17.80;;
4519;SDS011;2272;49.226;8.108;2022-08-19T00:45:00;25.97;;;18.23;;
4519;SDS011;2272;49.226;8.108;2022-08-19T00:47:27;25.60;;;18.80;;
4519;SDS011;2272;49.226;8.108;2022-08-19T00:49:55;23.37;;;18.80;;
4519;SDS011;2272;49.226;8.108;2022-08-19T00:52:25;23.07;;;17.70;;
4519;SDS011;2272;49.226;8.108;2022-08-19T00:54:56;18.53;;;16.73;;
4519;SDS011;2272;49.226;8.108;2022-08-19T00:57:24;23.70;;;18.40;;
4519;SDS011;2272;49.226;8.108;2022-08-19T00:59:56;24.80;;;18.50;;
4519;SDS011;2272;49.226;8.108;2022-08-19T01:02:25;24.30;;;18.10;;
4519;SDS011;2272;49.226;8.108;2022-08-19T01:04:53;23.73;;;19.10;;
4519;SDS011;2272;49.226;8.108;2022-08-19T01:07:20;22.13;;;18.27;;
4519;SDS011;2272;49.226;8.108;2022-08-19T01:09:47;28.53;;;17.63;;
4519;SDS011;2272;49.226;8.108;2022-08-19T01:12:14;22.80;;;17.63;;
4519;SDS011;2272;49.226;8.108;2022-08-19T01:14:43;22.07;;;18.40;;
4519;SDS011;2272;49.226;8.108;2022-08-19T01:17:12;29.13;;;18.07;;
4519;SDS011;2272;49.226;8.108;2022-08-19T01:19:40;22.63;;;18.80;;
4519;SDS011;2272;49.226;8.108;2022-08-19T01:22:15;28.07;;;19.60;;
4519;SDS011;2272;49.226;8.108;2022-08-19T01:24:47;21.70;;;18.70;;
4519;SDS011;2272;49.226;8.108;2022-08-19T01:27:13;21.73;;;18.63;;
4519;SDS011;2272;49.226;8.108;2022-08-19T01:29:41;20.50;;;17.27;;
4519;SDS011;2272;49.226;8.108;2022-08-19T01:32:11;22.23;;;19.23;;
4519;SDS011;2272;49.226;8.108;2022-08-19T01:34:39;20.10;;;17.17;;
4519;SDS011;2272;49.226;8.108;2022-08-19T01:37:07;21.17;;;18.50;;
4519;SDS011;2272;49.226;8.108;2022-08-19T01:39:36;22.10;;;17.63;;
4519;SDS011;2272;49.226;8.108;2022-08-19T01:42:06;22.10;;;17.97;;
4519;SDS011;2272;49.226;8.108;2022-08-19T01:44:36;23.83;;;18.90;;
4519;SDS011;2272;49.226;8.108;2022-08-19T01:47:03;21.80;;;18.33;;
4519;SDS011;2272;49.226;8.108;2022-08-19T01:49:30;24.03;;;18.60;;
4519;SDS011;2272;49.226;8.108;2022-08-19T01:51:58;20.13;;;16.83;;
4519;SDS011;2272;49.226;8.108;2022-08-19T01:54:26;20.83;;;18.37;;
4519;SDS011;2272;49.226;8.108;2022-08-19T01:56:54;24.13;;;18.47;;
4519;SDS011;2272;49.226;8.108;2022-08-19T01:59:26;24.83;;;17.70;;
4519;SDS011;2272;49.226;8.108;2022-08-19T02:01:53;21.30;;;19.03;;
4519;SDS011;2272;49.226;8.108;2022-08-19T02:04:20;22.57;;;19.13;;
4519;SDS011;2272;49.226;8.108;2022-08-19T02:06:50;26.03;;;20.67;;
4519;SDS011;2272;49.226;8.108;2022-08-19T02:09:16;27.73;;;19.90;;
4519;SDS011;2272;49.226;8.108;2022-08-19T02:11:43;27.97;;;20.23;;
4519;SDS011;2272;49.226;8.108;2022-08-19T02:14:10;25.23;;;18.40;;
4519;SDS011;2272;49.226;8.108;2022-08-19T02:16:39;23.30;;;18.90;;
4519;SDS011;2272;49.226;8.108;2022-08-19T02:19:05;24.07;;;20.00;;
4519;SDS011;2272;49.226;8.108;2022-08-19T02:21:33;30.37;;;19.73;;
4519;SDS011;2272;49.226;8.108;2022-08-19T02:24:00;27.23;;;19.83;;
4519;SDS011;2272;49.226;8.108;2022-08-19T02:26:27;31.20;;;20.70;;
4519;SDS011;2272;49.226;8.108;2022-08-19T02:28:54;24.83;;;20.47;;
4519;SDS011;2272;49.226;8.108;2022-08-19T02:31:23;25.13;;;20.70;;
4519;SDS011;2272;49.226;8.108;2022-08-19T02:33:54;25.90;;;20.80;;
4519;SDS011;2272;49.226;8.108;2022-08-19T02:36:21;25.73;;;20.67;;
4519;SDS011;2272;49.226;8.108;2022-08-19T02:38:49;29.53;;;20.13;;
4519;SDS011;2272;49.226;8.108;2022-08-19T02:41:16;23.20;;;19.23;;
4519;SDS011;2272;49.226;8.108;2022-08-19T02:43:44;23.77;;;20.17;;
4519;SDS011;2272;49.226;8.108;2022-08-19T02:46:12;24.53;;;21.40;;
4519;SDS011;2272;49.226;8.108;2022-08-19T02:48:42;26.37;;;21.97;;
4519;SDS011;2272;49.226;8.108;2022-08-19T02:51:14;21.47;;;18.13;;
4519;SDS011;2272;49.226;8.108;2022-08-19T02:53:42;27.20;;;20.03;;
4519;SDS011;2272;49.226;8.108;2022-08-19T02:56:09;24.37;;;18.97;;
4519;SDS011;2272;49.226;8.108;2022-08-19T02:58:36;24.70;;;18.63;;
4519;SDS011;2272;49.226;8.108;2022-08-19T03:01:03;24.80;;;20.50;;
4519;SDS011;2272;49.226;8.108;2022-08-19T03:03:30;24.33;;;19.60;;
4519;SDS011;2272;49.226;8.108;2022-08-19T03:06:08;27.80;;;19.70;;
4519;SDS011;2272;49.226;8.108;2022-08-19T03:08:39;21.63;;;19.20;;
4519;SDS011;2272;49.226;8.108;2022-08-19T03:11:11;29.13;;;20.30;;
4519;SDS011;2272;49.226;8.108;2022-08-19T03:13:39;21.67;;;19.27;;
4519;SDS011;2272;49.226;8.108;2022-08-19T03:16:08;21.83;;;18.83;;
4519;SDS011;2272;49.226;8.108;2022-08-19T03:18:35;29.90;;;20.60;;
4519;SDS011;2272;49.226;8.108;2022-08-19T03:21:02;25.43;;;20.93;;
4519;SDS011;2272;49.226;8.108;2022-08-19T03:23:30;21.90;;;19.53;;
4519;SDS011;2272;49.226;8.108;2022-08-19T03:25:57;20.87;;;17.77;;
4519;SDS011;2272;49.226;8.108;2022-08-19T03:28:23;30.13;;;21.90;;
4519;SDS011;2272;49.226;8.108;2022-08-19T03:30:54;29.33;;;21.10;;
4519;SDS011;2272;49.226;8.108;2022-08-19T03:33:23;20.53;;;18.43;;
4519;SDS011;2272;49.226;8.108;2022-08-19T03:36:04;21.30;;;19.00;;
4519;SDS011;2272;49.226;8.108;2022-08-19T03:38:35;31.13;;;19.13;;
4519;SDS011;2272;49.226;8.108;2022-08-19T03:41:05;22.57;;;18.30;;
4519;SDS011;2272;49.226;8.108;2022-08-19T03:43:34;21.70;;;18.90;;
4519;SDS011;2272;49.226;8.108;2022-08-19T03:46:02;21.47;;;19.17;;
4519;SDS011;2272;49.226;8.108;2022-08-19T03:48:32;23.90;;;17.83;;
4519;SDS011;2272;49.226;8.108;2022-08-19T03:50:59;20.40;;;17.63;;
4519;SDS011;2272;49.226;8.108;2022-08-19T03:53:26;17.60;;;15.70;;
4519;SDS011;2272;49.226;8.108;2022-08-19T03:55:55;22.83;;;16.10;;
4519;SDS011;2272;49.226;8.108;2022-08-19T03:58:24;18.10;;;16.07;;
4519;SDS011;2272;49.226;8.108;2022-08-19T04:00:51;20.63;;;17.33;;
4519;SDS011;2272;49.226;8.108;2022-08-19T04:03:18;28.43;;;19.20;;
4519;SDS011;2272;49.226;8.108;2022-08-19T04:05:45;24.67;;;18.40;;
4519;SDS011;2272;49.226;8.108;2022-08-19T04:08:12;23.67;;;17.07;;
4519;SDS011;2272;49.226;8.108;2022-08-19T04:10:46;19.17;;;17.07;;
4519;SDS011;2272;49.226;8.108;2022-08-19T04:13:15;19.03;;;17.10;;
4519;SDS011;2272;49.226;8.108;2022-08-19T04:15:44;22.00;;;18.53;;
4519;SDS011;2272;49.226;8.108;2022-08-19T04:18:12;20.60;;;17.40;;
4519;SDS011;2272;49.226;8.108;2022-08-19T04:20:43;21.40;;;17.20;;
4519;SDS011;2272;49.226;8.108;2022-08-19T04:23:13;20.90;;;16.40;;
4519;SDS011;2272;49.226;8.108;2022-08-19T04:25:41;18.80;;;15.57;;
4519;SDS011;2272;49.226;8.108;2022-08-19T04:28:10;18.00;;;15.90;;
4519;SDS011;2272;49.226;8.108;2022-08-19T04:30:41;21.13;;;15.73;;
4519;SDS011;2272;49.226;8.108;2022-08-19T04:33:09;19.10;;;15.40;;
4519;SDS011;2272;49.226;8.108;2022-08-19T04:35:37;15.90;;;14.03;;
4519;SDS011;2272;49.226;8.108;2022-08-19T04:38:05;19.33;;;14.33;;
4519;SDS011;2272;49.226;8.108;2022-08-19T04:40:32;14.27;;;12.87;;
4519;SDS011;2272;49.226;8.108;2022-08-19T04:43:17;18.00;;;13.93;;
4519;SDS011;2272;49.226;8.108;2022-08-19T04:45:45;21.43;;;15.00;;
4519;SDS011;2272;49.226;8.108;2022-08-19T04:48:12;21.00;;;13.77;;
4519;SDS011;2272;49.226;8.108;2022-08-19T04:50:40;18.20;;;14.20;;
4519;SDS011;2272;49.226;8.108;2022-08-19T04:53:08;18.40;;;13.30;;
4519;SDS011;2272;49.226;8.108;2022-08-19T04:55:38;15.07;;;13.23;;
4519;SDS011;2272;49.226;8.108;2022-08-19T04:58:05;13.40;;;12.00;;
4519;SDS011;2272;49.226;8.108;2022-08-19T05:00:32;22.10;;;12.70;;
4519;SDS011;2272;49.226;8.108;2022-08-19T05:03:01;17.23;;;13.97;;
4519;SDS011;2272;49.226;8.108;2022-08-19T05:05:28;18.43;;;13.60;;
4519;SDS011;2272;49.226;8.108;2022-08-19T05:07:56;15.93;;;13.97;;
4519;SDS011;2272;49.226;8.108;2022-08-19T05:10:23;16.97;;;14.63;;
4519;SDS011;2272;49.226;8.108;2022-08-19T05:12:49;19.13;;;15.13;;
4519;SDS011;2272;49.226;8.108;2022-08-19T05:15:16;16.40;;;14.70;;
4519;SDS011;2272;49.226;8.108;2022-08-19T05:17:43;21.40;;;14.57;;
4519;SDS011;2272;49.226;8.108;2022-08-19T05:20:31;18.20;;;15.13;;
4519;SDS011;2272;49.226;8.108;2022-08-19T05:23:16;15.17;;;13.57;;
4519;SDS011;2272;49.226;8.108;2022-08-19T05:25:43;13.47;;;12.27;;
4519;SDS011;2272;49.226;8.108;2022-08-19T05:28:10;14.63;;;13.13;;
4519;SDS011;2272;49.226;8.108;2022-08-19T05:30:36;15.03;;;13.43;;
4519;SDS011;2272;49.226;8.108;2022-08-19T05:33:05;16.43;;;14.23;;
4519;SDS011;2272;49.226;8.108;2022-08-19T05:35:34;18.07;;;13.83;;
4519;SDS011;2272;49.226;8.108;2022-08-19T05:38:02;14.37;;;12.87;;
4519;SDS011;2272;49.226;8.108;2022-08-19T05:40:29;21.70;;;12.67;;
4519;SDS011;2272;49.226;8.108;2022-08-19T05:42:59;13.73;;;12.33;;
4519;SDS011;2272;49.226;8.108;2022-08-19T05:45:26;14.70;;;13.23;;
4519;SDS011;2272;49.226;8.108;2022-08-19T05:47:53;12.63;;;11.43;;
4519;SDS011;2272;49.226;8.108;2022-08-19T05:50:20;14.40;;;12.47;;
4519;SDS011;2272;49.226;8.108;2022-08-19T05:52:48;13.13;;;11.20;;
4519;SDS011;2272;49.226;8.108;2022-08-19T05:55:15;15.13;;;12.17;;
4519;SDS011;2272;49.226;8.108;2022-08-19T05:57:45;14.50;;;12.20;;
4519;SDS011;2272;49.226;8.108;2022-08-19T06:00:12;17.30;;;12.27;;
4519;SDS011;2272;49.226;8.108;2022-08-19T06:02:39;14.27;;;11.90;;
4519;SDS011;2272;49.226;8.108;2022-08-19T06:05:07;18.67;;;10.27;;
4519;SDS011;2272;49.226;8.108;2022-08-19T06:07:35;14.43;;;11.10;;
4519;SDS011;2272;49.226;8.108;2022-08-19T06:10:04;13.33;;;10.63;;
4519;SDS011;2272;49.226;8.108;2022-08-19T06:12:33;14.70;;;10.63;;
4519;SDS011;2272;49.226;8.108;2022-08-19T06:15:04;14.83;;;11.80;;
4519;SDS011;2272;49.226;8.108;2022-08-19T06:17:33;15.57;;;13.80;;
4519;SDS011;2272;49.226;8.108;2022-08-19T06:20:00;9.67;;;8.77;;
4519;SDS011;2272;49.226;8.108;2022-08-19T06:22:27;13.77;;;10.20;;
4519;SDS011;2272;49.226;8.108;2022-08-19T06:24:54;15.13;;;11.13;;
4519;SDS011;2272;49.226;8.108;2022-08-19T06:27:23;11.40;;;10.30;;
4519;SDS011;2272;49.226;8.108;2022-08-19T06:29:50;16.43;;;13.30;;
4519;SDS011;2272;49.226;8.108;2022-08-19T06:32:17;11.40;;;10.23;;
4519;SDS011;2272;49.226;8.108;2022-08-19T06:34:44;17.20;;;12.10;;
4519;SDS011;2272;49.226;8.108;2022-08-19T06:37:12;13.63;;;10.87;;
4519;SDS011;2272;49.226;8.108;2022-08-19T06:39:42;11.83;;;10.50;;
4519;SDS011;2272;49.226;8.108;2022-08-19T06:42:11;11.37;;;10.37;;
4519;SDS011;2272;49.226;8.108;2022-08-19T06:44:42;17.63;;;9.30;;
4519;SDS011;2272;49.226;8.108;2022-08-19T06:47:12;13.43;;;9.43;;
4519;SDS011;2272;49.226;8.108;2022-08-19T06:49:39;18.07;;;11.07;;
4519;SDS011;2272;49.226;8.108;2022-08-19T06:52:07;9.90;;;8.77;;
4519;SDS011;2272;49.226;8.108;2022-08-19T06:54:36;12.10;;;10.77;;
4519;SDS011;2272;49.226;8.108;2022-08-19T06:57:04;10.13;;;9.23;;
4519;SDS011;2272;49.226;8.108;2022-08-19T06:59:32;12.13;;;9.70;;
4519;SDS011;2272;49.226;8.108;2022-08-19T07:02:02;11.10;;;10.00;;
4519;SDS011;2272;49.226;8.108;2022-08-19T07:04:32;9.40;;;8.60;;
4519;SDS011;2272;49.226;8.108;2022-08-19T07:07:01;12.83;;;9.43;;
4519;SDS011;2272;49.226;8.108;2022-08-19T07:09:31;9.57;;;8.40;;
4519;SDS011;2272;49.226;8.108;2022-08-19T07:11:58;12.33;;;9.50;;
4519;SDS011;2272;49.226;8.108;2022-08-19T07:14:25;9.60;;;8.80;;
4519;SDS011;2272;49.226;8.108;2022-08-19T07:16:54;12.60;;;10.50;;
4519;SDS011;2272;49.226;8.108;2022-08-19T07:19:25;15.63;;;10.70;;
4519;SDS011;2272;49.226;8.108;2022-08-19T07:21:52;9.83;;;8.83;;
4519;SDS011;2272;49.226;8.108;2022-08-19T07:24:20;10.70;;;8.60;;
4519;SDS011;2272;49.226;8.108;2022-08-19T07:26:49;10.80;;;7.40;;
4519;SDS011;2272;49.226;8.108;2022-08-19T07:29:18;9.77;;;8.67;;
4519;SDS011;2272;49.226;8.108;2022-08-19T07:31:48;9.37;;;8.40;;
4519;SDS011;2272;49.226;8.108;2022-08-19T07:34:15;16.07;;;11.30;;
4519;SDS011;2272;49.226;8.108;2022-08-19T07:36:43;10.73;;;9.83;;
4519;SDS011;2272;49.226;8.108;2022-08-19T07:39:13;10.80;;;8.97;;
4519;SDS011;2272;49.226;8.108;2022-08-19T07:41:41;12.83;;;10.37;;
4519;SDS011;2272;49.226;8.108;2022-08-19T07:44:09;11.60;;;9.03;;
4519;SDS011;2272;49.226;8.108;2022-08-19T07:46:39;12.90;;;8.23;;
4519;SDS011;2272;49.226;8.108;2022-08-19T07:49:07;12.57;;;8.27;;
4519;SDS011;2272;49.226;8.108;2022-08-19T07:51:46;12.27;;;10.83;;
4519;SDS011;2272;49.226;8.108;2022-08-19T07:54:14;10.63;;;8.30;;
4519;SDS011;2272;49.226;8.108;2022-08-19T07:56:41;11.50;;;9.40;;
4519;SDS011;2272;49.226;8.108;2022-08-19T07:59:08;15.20;;;11.90;;
4519;SDS011;2272;49.226;8.108;2022-08-19T08:01:35;14.90;;;12.10;;
4519;SDS011;2272;49.226;8.108;2022-08-19T08:04:04;20.43;;;13.73;;
4519;SDS011;2272;49.226;8.108;2022-08-19T08:06:51;12.13;;;10.70;;
4519;SDS011;2272;49.226;8.108;2022-08-19T08:09:37;13.80;;;10.40;;
4519;SDS011;2272;49.226;8.108;2022-08-19T08:12:07;14.10;;;10.23;;
4519;SDS011;2272;49.226;8.108;2022-08-19T08:14:37;8.60;;;7.90;;
4519;SDS011;2272;49.226;8.108;2022-08-19T08:17:06;12.50;;;9.50;;
4519;SDS011;2272;49.226;8.108;2022-08-19T08:19:34;11.53;;;9.90;;
4519;SDS011;2272;49.226;8.108;2022-08-19T08:22:03;9.87;;;9.00;;
4519;SDS011;2272;49.226;8.108;2022-08-19T08:24:31;11.30;;;10.23;;
4519;SDS011;2272;49.226;8.108;2022-08-19T08:27:00;13.50;;;10.10;;
4519;SDS011;2272;49.226;8.108;2022-08-19T08:29:29;12.30;;;9.77;;
4519;SDS011;2272;49.226;8.108;2022-08-19T08:31:58;10.30;;;8.93;;
4519;SDS011;2272;49.226;8.108;2022-08-19T08:34:24;11.50;;;9.70;;
4519;SDS011;2272;49.226;8.108;2022-08-19T08:36:51;11.20;;;9.70;;
4519;SDS011;2272;49.226;8.108;2022-08-19T08:39:20;10.87;;;9.60;;
4519;SDS011;2272;49.226;8.108;2022-08-19T08:41:50;14.60;;;10.63;;
4519;SDS011;2272;49.226;8.108;2022-08-19T08:44:22;16.57;;;8.77;;
4519;SDS011;2272;49.226;8.108;2022-08-19T08:46:55;10.10;;;9.07;;
4519;SDS011;2272;49.226;8.108;2022-08-19T08:49:28;8.83;;;7.80;;
4519;SDS011;2272;49.226;8.108;2022-08-19T08:52:07;10.17;;;8.73;;
4519;SDS011;2272;49.226;8.108;2022-08-19T08:54:46;10.80;;;9.87;;
4519;SDS011;2272;49.226;8.108;2022-08-19T08:57:17;11.13;;;7.17;;
4519;SDS011;2272;49.226;8.108;2022-08-19T08:59:48;9.53;;;8.60;;
4519;SDS011;2272;49.226;8.108;2022-08-19T09:02:18;8.57;;;7.77;;
4519;SDS011;2272;49.226;8.108;2022-08-19T09:04:44;12.83;;;8.63;;
4519;SDS011;2272;49.226;8.108;2022-08-19T09:07:15;8.07;;;7.20;;
4519;SDS011;2272;49.226;8.108;2022-08-19T09:09:51;10.60;;;8.03;;
4519;SDS011;2272;49.226;8.108;2022-08-19T09:12:31;10.33;;;8.00;;
4519;SDS011;2272;49.226;8.108;2022-08-19T09:15:05;9.33;;;8.30;;
4519;SDS011;2272;49.226;8.108;2022-08-19T09:17:41;7.67;;;7.07;;
4519;SDS011;2272;49.226;8.108;2022-08-19T09:20:14;7.37;;;6.67;;
4519;SDS011;2272;49.226;8.108;2022-08-19T09:22:43;10.50;;;7.60;;
4519;SDS011;2272;49.226;8.108;2022-08-19T09:25:13;6.70;;;6.20;;
4519;SDS011;2272;49.226;8.108;2022-08-19T09:27:43;9.67;;;6.97;;
4519;SDS011;2272;49.226;8.108;2022-08-19T09:30:12;9.53;;;5.60;;
4519;SDS011;2272;49.226;8.108;2022-08-19T09:32:40;17.17;;;6.13;;
4519;SDS011;2272;49.226;8.108;2022-08-19T09:35:08;11.67;;;6.50;;
4519;SDS011;2272;49.226;8.108;2022-08-19T09:37:35;10.43;;;7.50;;
4519;SDS011;2272;49.226;8.108;2022-08-19T09:40:03;6.57;;;5.80;;
4519;SDS011;2272;49.226;8.108;2022-08-19T09:42:32;5.70;;;5.20;;
4519;SDS011;2272;49.226;8.108;2022-08-19T09:45:30;12.83;;;6.03;;
4519;SDS011;2272;49.226;8.108;2022-08-19T09:48:12;6.20;;;5.70;;
4519;SDS011;2272;49.226;8.108;2022-08-19T09:50:40;7.03;;;6.43;;
4519;SDS011;2272;49.226;8.108;2022-08-19T09:53:06;7.40;;;6.57;;
4519;SDS011;2272;49.226;8.108;2022-08-19T09:55:33;8.20;;;7.40;;
4519;SDS011;2272;49.226;8.108;2022-08-19T09:58:01;7.63;;;6.80;;
4519;SDS011;2272;49.226;8.108;2022-08-19T10:00:28;14.03;;;6.87;;
4519;SDS011;2272;49.226;8.108;2022-08-19T10:02:56;8.10;;;7.37;;
4519;SDS011;2272;49.226;8.108;2022-08-19T10:05:24;7.93;;;7.00;;
4519;SDS011;2272;49.226;8.108;2022-08-19T10:08:08;7.67;;;6.80;;
4519;SDS011;2272;49.226;8.108;2022-08-19T10:10:37;7.97;;;7.17;;
4519;SDS011;2272;49.226;8.108;2022-08-19T10:13:05;8.00;;;6.70;;
4519;SDS011;2272;49.226;8.108;2022-08-19T10:15:32;8.30;;;7.60;;
4519;SDS011;2272;49.226;8.108;2022-08-19T10:18:02;6.90;;;6.40;;
4519;SDS011;2272;49.226;8.108;2022-08-19T10:20:45;7.77;;;7.07;;
4519;SDS011;2272;49.226;8.108;2022-08-19T10:23:13;6.37;;;5.97;;
4519;SDS011;2272;49.226;8.108;2022-08-19T10:25:40;8.47;;;5.80;;
4519;SDS011;2272;49.226;8.108;2022-08-19T10:28:12;6.10;;;5.60;;
4519;SDS011;2272;49.226;8.108;2022-08-19T10:30:49;6.20;;;5.70;;
4519;SDS011;2272;49.226;8.108;2022-08-19T10:33:16;8.27;;;4.93;;
4519;SDS011;2272;49.226;8.108;2022-08-19T10:35:43;6.10;;;5.50;;
4519;SDS011;2272;49.226;8.108;2022-08-19T10:38:11;5.57;;;5.07;;
4519;SDS011;2272;49.226;8.108;2022-08-19T10:40:38;5.53;;;5.20;;
4519;SDS011;2272;49.226;8.108;2022-08-19T10:43:05;5.90;;;5.50;;
4519;SDS011;2272;49.226;8.108;2022-08-19T10:45:33;6.27;;;5.80;;
4519;SDS011;2272;49.226;8.108;2022-08-19T10:48:00;6.10;;;5.30;;
4519;SDS011;2272;49.226;8.108;2022-08-19T10:50:26;7.33;;;5.87;;
4519;SDS011;2272;49.226;8.108;2022-08-19T10:53:10;7.67;;;6.57;;
4519;SDS011;2272;49.226;8.108;2022-08-19T10:55:37;6.50;;;6.00;;
4519;SDS011;2272;49.226;8.108;2022-08-19T10:58:27;9.17;;;6.90;;
4519;SDS011;2272;49.226;8.108;2022-08-19T11:00:58;7.20;;;6.60;;
4519;SDS011;2272;49.226;8.108;2022-08-19T11:03:44;6.47;;;5.97;;
4519;SDS011;2272;49.226;8.108;2022-08-19T11:06:13;6.40;;;6.00;;
4519;SDS011;2272;49.226;8.108;2022-08-19T11:08:40;7.20;;;6.53;;
4519;SDS011;2272;49.226;8.108;2022-08-19T11:11:09;7.90;;;6.63;;
4519;SDS011;2272;49.226;8.108;2022-08-19T11:13:38;7.33;;;6.77;;
4519;SDS011;2272;49.226;8.108;2022-08-19T11:16:09;7.00;;;6.30;;
4519;SDS011;2272;49.226;8.108;2022-08-19T11:18:38;6.50;;;5.80;;
4519;SDS011;2272;49.226;8.108;2022-08-19T11:21:09;5.57;;;5.10;;
4519;SDS011;2272;49.226;8.108;2022-08-19T11:23:42;5.40;;;5.10;;
4519;SDS011;2272;49.226;8.108;2022-08-19T11:26:10;6.27;;;5.83;;
4519;SDS011;2272;49.226;8.108;2022-08-19T11:28:37;6.77;;;5.57;;
4519;SDS011;2272;49.226;8.108;2022-08-19T11:31:17;6.23;;;5.73;;
4519;SDS011;2272;49.226;8.108;2022-08-19T11:33:45;6.40;;;5.80;;
4519;SDS011;2272;49.226;8.108;2022-08-19T11:36:17;4.50;;;4.30;;
4519;SDS011;2272;49.226;8.108;2022-08-19T11:38:48;4.27;;;3.97;;
4519;SDS011;2272;49.226;8.108;2022-08-19T11:41:18;5.77;;;5.27;;
4519;SDS011;2272;49.226;8.108;2022-08-19T11:43:47;5.43;;;5.00;;
4519;SDS011;2272;49.226;8.108;2022-08-19T11:46:16;5.63;;;5.00;;
4519;SDS011;2272;49.226;8.108;2022-08-19T11:48:43;5.77;;;5.43;;
4519;SDS011;2272;49.226;8.108;2022-08-19T11:51:10;6.27;;;5.63;;
4519;SDS011;2272;49.226;8.108;2022-08-19T11:53:40;7.93;;;4.87;;
4519;SDS011;2272;49.226;8.108;2022-08-19T11:56:11;5.20;;;4.80;;
4519;SDS011;2272;49.226;8.108;2022-08-19T11:59:00;5.90;;;4.60;;
4519;SDS011;2272;49.226;8.108;2022-08-19T12:01:29;4.47;;;4.17;;
4519;SDS011;2272;49.226;8.108;2022-08-19T12:03:57;5.03;;;4.00;;
4519;SDS011;2272;49.226;8.108;2022-08-19T12:06:26;3.53;;;3.33;;
4519;SDS011;2272;49.226;8.108;2022-08-19T12:08:57;3.47;;;3.17;;
4519;SDS011;2272;49.226;8.108;2022-08-19T12:11:25;3.20;;;2.90;;
4519;SDS011;2272;49.226;8.108;2022-08-19T12:13:53;2.80;;;2.60;;
4519;SDS011;2272;49.226;8.108;2022-08-19T12:16:26;3.27;;;3.17;;
4519;SDS011;2272;49.226;8.108;2022-08-19T12:18:56;3.00;;;2.80;;
4519;SDS011;2272;49.226;8.108;2022-08-19T12:21:28;5.53;;;2.87;;
4519;SDS011;2272;49.226;8.108;2022-08-19T12:23:55;2.90;;;2.80;;
4519;SDS011;2272;49.226;8.108;2022-08-19T12:26:24;2.83;;;2.70;;
4519;SDS011;2272;49.226;8.108;2022-08-19T12:28:52;3.07;;;2.97;;
4519;SDS011;2272;49.226;8.108;2022-08-19T12:31:19;3.03;;;2.93;;
4519;SDS011;2272;49.226;8.108;2022-08-19T12:33:47;3.20;;;3.10;;
4519;SDS011;2272;49.226;8.108;2022-08-19T12:36:14;3.07;;;2.83;;
4519;SDS011;2272;49.226;8.108;2022-08-19T12:38:42;3.27;;;2.97;;
4519;SDS011;2272;49.226;8.108;2022-08-19T12:41:10;3.70;;;3.33;;
4519;SDS011;2272;49.226;8.108;2022-08-19T12:43:39;4.00;;;3.30;;
4519;SDS011;2272;49.226;8.108;2022-08-19T12:46:07;3.73;;;3.53;;
4519;SDS011;2272;49.226;8.108;2022-08-19T12:48:34;5.07;;;3.90;;
4519;SDS011;2272;49.226;8.108;2022-08-19T12:51:05;2.80;;;2.70;;
4519;SDS011;2272;49.226;8.108;2022-08-19T12:53:32;4.10;;;3.80;;
4519;SDS011;2272;49.226;8.108;2022-08-19T12:56:00;3.93;;;2.70;;
4519;SDS011;2272;49.226;8.108;2022-08-19T12:58:27;3.47;;;3.27;;
4519;SDS011;2272;49.226;8.108;2022-08-19T13:00:55;3.47;;;3.37;;
4519;SDS011;2272;49.226;8.108;2022-08-19T13:03:22;2.83;;;2.73;;
4519;SDS011;2272;49.226;8.108;2022-08-19T13:05:53;3.63;;;3.43;;
4519;SDS011;2272;49.226;8.108;2022-08-19T13:08:22;4.17;;;3.10;;
4519;SDS011;2272;49.226;8.108;2022-08-19T13:10:49;12.63;;;3.00;;
4519;SDS011;2272;49.226;8.108;2022-08-19T13:13:16;2.70;;;2.60;;
4519;SDS011;2272;49.226;8.108;2022-08-19T13:15:43;3.93;;;3.57;;
4519;SDS011;2272;49.226;8.108;2022-08-19T13:18:10;3.40;;;3.10;;
4519;SDS011;2272;49.226;8.108;2022-08-19T13:20:38;3.40;;;3.30;;
4519;SDS011;2272;49.226;8.108;2022-08-19T13:23:05;4.73;;;3.40;;
4519;SDS011;2272;49.226;8.108;2022-08-19T13:25:33;3.30;;;3.10;;
4519;SDS011;2272;49.226;8.108;2022-08-19T13:28:01;4.57;;;3.40;;
4519;SDS011;2272;49.226;8.108;2022-08-19T13:30:31;3.30;;;3.00;;
4519;SDS011;2272;49.226;8.108;2022-08-19T13:33:18;3.03;;;2.83;;
4519;SDS011;2272;49.226;8.108;2022-08-19T13:39:48;2.60;;;2.50;;
4519;SDS011;2272;49.226;8.108;2022-08-19T13:42:16;3.63;;;3.30;;
4519;SDS011;2272;49.226;8.108;2022-08-19T13:44:44;4.30;;;3.33;;
4519;SDS011;2272;49.226;8.108;2022-08-19T13:47:12;3.60;;;3.27;;
4519;SDS011;2272;49.226;8.108;2022-08-19T13:49:39;3.40;;;3.20;;
4519;SDS011;2272;49.226;8.108;2022-08-19T13:52:06;3.97;;;3.77;;
4519;SDS011;2272;49.226;8.108;2022-08-19T13:54:33;5.17;;;4.77;;
4519;SDS011;2272;49.226;8.108;2022-08-19T13:57:00;3.33;;;3.13;;
4519;SDS011;2272;49.226;8.108;2022-08-19T13:59:28;3.40;;;3.20;;
4519;SDS011;2272;49.226;8.108;2022-08-19T14:01:57;3.90;;;3.60;;
4519;SDS011;2272;49.226;8.108;2022-08-19T14:04:24;3.80;;;3.60;;
4519;SDS011;2272;49.226;8.108;2022-08-19T14:06:51;3.70;;;3.50;;
4519;SDS011;2272;49.226;8.108;2022-08-19T14:09:17;4.17;;;3.80;;
4519;SDS011;2272;49.226;8.108;2022-08-19T14:11:44;4.10;;;3.90;;
4519;SDS011;2272;49.226;8.108;2022-08-19T14:14:11;5.77;;;3.90;;
4519;SDS011;2272;49.226;8.108;2022-08-19T14:16:39;6.40;;;4.30;;
4519;SDS011;2272;49.226;8.108;2022-08-19T14:19:06;3.67;;;3.47;;
4519;SDS011;2272;49.226;8.108;2022-08-19T14:21:33;3.83;;;3.37;;
4519;SDS011;2272;49.226;8.108;2022-08-19T14:24:01;4.17;;;3.97;;
4519;SDS011;2272;49.226;8.108;2022-08-19T14:26:28;4.10;;;3.80;;
4519;SDS011;2272;49.226;8.108;2022-08-19T14:28:54;3.60;;;3.50;;
4519;SDS011;2272;49.226;8.108;2022-08-19T14:31:22;3.73;;;3.47;;
4519;SDS011;2272;49.226;8.108;2022-08-19T14:33:51;4.57;;;4.17;;
4519;SDS011;2272;49.226;8.108;2022-08-19T14:36:17;3.93;;;3.70;;
4519;SDS011;2272;49.226;8.108;2022-08-19T14:38:45;4.63;;;4.00;;
4519;SDS011;2272;49.226;8.108;2022-08-19T14:41:14;3.37;;;3.17;;
4519;SDS011;2272;49.226;8.108;2022-08-19T14:43:55;4.57;;;4.13;;
4519;SDS011;2272;49.226;8.108;2022-08-19T14:46:22;3.73;;;3.53;;
4519;SDS011;2272;49.226;8.108;2022-08-19T14:48:53;4.53;;;4.23;;
4519;SDS011;2272;49.226;8.108;2022-08-19T14:51:21;4.27;;;4.00;;
4519;SDS011;2272;49.226;8.108;2022-08-19T14:53:49;3.80;;;3.60;;
4519;SDS011;2272;49.226;8.108;2022-08-19T14:56:22;3.53;;;3.33;;
4519;SDS011;2272;49.226;8.108;2022-08-19T14:58:51;3.67;;;3.47;;
4519;SDS011;2272;49.226;8.108;2022-08-19T15:01:18;4.00;;;3.77;;
4519;SDS011;2272;49.226;8.108;2022-08-19T15:03:56;3.20;;;3.10;;
4519;SDS011;2272;49.226;8.108;2022-08-19T15:06:26;3.23;;;3.10;;
4519;SDS011;2272;49.226;8.108;2022-08-19T15:08:53;3.43;;;3.23;;
4519;SDS011;2272;49.226;8.108;2022-08-19T15:11:22;3.23;;;3.03;;
4519;SDS011;2272;49.226;8.108;2022-08-19T15:13:51;3.77;;;3.50;;
4519;SDS011;2272;49.226;8.108;2022-08-19T15:16:18;3.67;;;3.47;;